Time;durP1;ratioP1;P1;durP2;ratioP2;P2;SDS_P1;SDS_P2;PMS_P1;PMS_P2;Temp;Humidity;BMP_temperature;BMP_pressure;BME280_temperature;BME280_humidity;BME280_pressure;Samples;Min_cycle;Max_cycle;Signal;HPM_P1;HPM_P2
2023/07/03 00:03:20;;;;;;;25.08;13.85;;;;;;;;;;10523110;28;20048;-78
2023/07/03 00:08:21;;;;;;;28.57;15.43;;;;;;;;;;10494689;28;20058;-78
2023/07/03 00:13:21;;;;;;;22.13;13.37;;;;;;;;;;10513643;28;20180;-82
2023/07/03 00:18:22;;;;;;;23.30;13.50;;;;;;;;;;10496223;28;20556;-77
2023/07/03 00:23:23;;;;;;;24.27;13.38;;;;;;;;;;10511877;28;20076;-79
2023/07/03 00:28:23;;;;;;;24.67;14.18;;;;;;;;;;10488328;28;20076;-79
2023/07/03 00:33:23;;;;;;;24.63;14.07;;;;;;;;;;10512331;28;20024;-78
2023/07/03 00:38:26;;;;;;;23.40;14.00;;;;;;;;;;10515814;28;20028;-82
2023/07/03 00:43:29;;;;;;;23.52;13.73;;;;;;;;;;10510762;28;20368;-76
2023/07/03 00:48:32;;;;;;;24.83;13.40;;;;;;;;;;10510487;28;20043;-76
2023/07/03 00:53:33;;;;;;;24.92;13.70;;;;;;;;;;10506696;28;20043;-77
2023/07/03 00:58:33;;;;;;;24.80;14.30;;;;;;;;;;10505302;28;20078;-77
2023/07/03 01:03:37;;;;;;;19.40;12.13;;;;;;;;;;10512588;28;20059;-76
2023/07/03 01:08:38;;;;;;;21.63;12.82;;;;;;;;;;10506084;28;20338;-75
2023/07/03 01:13:39;;;;;;;24.63;13.18;;;;;;;;;;10507920;28;20505;-78
2023/07/03 01:18:40;;;;;;;22.60;12.18;;;;;;;;;;10511345;28;20043;-77
2023/07/03 01:23:48;;;;;;;26.48;12.77;;;;;;;;;;10501496;28;20036;-77
2023/07/03 01:28:52;;;;;;;23.48;12.25;;;;;;;;;;10499592;28;20413;-76
2023/07/03 01:33:53;;;;;;;24.88;12.48;;;;;;;;;;10512166;28;20024;-78
2023/07/03 01:38:55;;;;;;;21.17;12.93;;;;;;;;;;10507209;28;20032;-77
2023/07/03 01:43:55;;;;;;;20.35;12.35;;;;;;;;;;10493204;28;20091;-76
2023/07/03 01:48:56;;;;;;;20.15;11.60;;;;;;;;;;10506971;28;20043;-76
2023/07/03 01:54:07;;;;;;;21.13;12.23;;;;;;;;;;10509715;28;20511;-78
2023/07/03 01:59:10;;;;;;;24.73;12.77;;;;;;;;;;10508991;28;20090;-79
2023/07/03 02:04:14;;;;;;;23.05;12.38;;;;;;;;;;10495848;28;20166;-78
2023/07/03 02:09:15;;;;;;;19.23;11.90;;;;;;;;;;10506376;28;20480;-78
2023/07/03 02:14:20;;;;;;;23.40;12.63;;;;;;;;;;10495610;28;20443;-78
2023/07/03 02:19:28;;;;;;;21.63;12.38;;;;;;;;;;10492555;28;20044;-77
2023/07/03 02:24:28;;;;;;;19.55;11.23;;;;;;;;;;10492928;28;20044;-77
2023/07/03 02:29:29;;;;;;;20.67;11.63;;;;;;;;;;10475175;28;20024;-77
2023/07/03 02:34:31;;;;;;;22.67;12.53;;;;;;;;;;10485490;28;20071;-78
2023/07/03 02:39:32;;;;;;;20.70;12.23;;;;;;;;;;10489030;28;20044;-78
2023/07/03 02:44:33;;;;;;;23.87;13.27;;;;;;;;;;10491684;28;20040;-79
2023/07/03 02:49:33;;;;;;;19.02;11.90;;;;;;;;;;10501839;28;20063;-81
2023/07/03 02:54:37;;;;;;;19.45;11.57;;;;;;;;;;10497551;28;20123;-79
2023/07/03 02:59:39;;;;;;;20.30;12.10;;;;;;;;;;10514275;28;20035;-78
2023/07/03 03:04:39;;;;;;;21.35;11.82;;;;;;;;;;10496212;28;20063;-79
2023/07/03 03:09:40;;;;;;;21.10;12.10;;;;;;;;;;10477750;28;20039;-79
2023/07/03 03:14:41;;;;;;;23.90;13.40;;;;;;;;;;10495020;28;20093;-79
2023/07/03 03:19:41;;;;;;;25.25;13.25;;;;;;;;;;10499546;28;20044;-79
2023/07/03 03:24:42;;;;;;;23.05;12.30;;;;;;;;;;10499449;28;20055;-79
2023/07/03 03:29:43;;;;;;;24.10;12.55;;;;;;;;;;10512209;28;20090;-80
2023/07/03 03:34:43;;;;;;;23.30;12.75;;;;;;;;;;10498279;28;20036;-79
2023/07/03 03:39:44;;;;;;;21.70;12.57;;;;;;;;;;10480009;28;20111;-78
2023/07/03 03:44:45;;;;;;;23.17;11.88;;;;;;;;;;10518289;28;20028;-79
2023/07/03 03:49:45;;;;;;;23.95;12.85;;;;;;;;;;10516109;28;20051;-79
2023/07/03 03:54:47;;;;;;;20.13;12.27;;;;;;;;;;10512988;28;20392;-81
2023/07/03 03:59:47;;;;;;;20.40;11.63;;;;;;;;;;10492299;28;20135;-77
2023/07/03 04:04:48;;;;;;;24.73;12.50;;;;;;;;;;10493709;28;20059;-78
2023/07/03 04:09:48;;;;;;;25.00;12.83;;;;;;;;;;10513461;28;20081;-78
2023/07/03 04:14:48;;;;;;;20.65;12.40;;;;;;;;;;10509798;28;20633;-77
2023/07/03 04:19:49;;;;;;;21.13;11.73;;;;;;;;;;10507636;28;20121;-78
2023/07/03 04:24:49;;;;;;;21.67;11.60;;;;;;;;;;10511969;28;20048;-76
2023/07/03 04:29:49;;;;;;;22.27;11.97;;;;;;;;;;10513168;28;20305;-79
2023/07/03 04:34:50;;;;;;;22.00;11.97;;;;;;;;;;10492256;28;20036;-78
2023/07/03 04:39:50;;;;;;;22.10;11.52;;;;;;;;;;10512255;28;20100;-78
2023/07/03 04:44:51;;;;;;;19.90;10.77;;;;;;;;;;10493644;28;20075;-77
2023/07/03 04:49:55;;;;;;;18.80;11.27;;;;;;;;;;10509333;28;20032;-76
2023/07/03 04:54:55;;;;;;;20.05;11.38;;;;;;;;;;10497488;28;20382;-77
2023/07/03 04:59:55;;;;;;;19.10;10.27;;;;;;;;;;10511026;28;20113;-77
2023/07/03 05:04:57;;;;;;;17.87;10.50;;;;;;;;;;10512322;28;20582;-77
2023/07/03 05:09:57;;;;;;;21.67;11.07;;;;;;;;;;10512735;28;20083;-79
2023/07/03 05:14:58;;;;;;;22.23;12.10;;;;;;;;;;10555571;28;20060;-79
2023/07/03 05:19:58;;;;;;;16.70;10.40;;;;;;;;;;10556594;28;20043;-80
2023/07/03 05:25:00;;;;;;;20.50;11.27;;;;;;;;;;10527538;28;20310;-80
2023/07/03 05:30:00;;;;;;;18.73;10.43;;;;;;;;;;10515333;28;20039;-74
2023/07/03 05:35:02;;;;;;;19.10;10.82;;;;;;;;;;10510627;28;20431;-79
2023/07/03 05:40:05;;;;;;;18.55;12.52;;;;;;;;;;10513884;28;20157;-77
2023/07/03 05:45:07;;;;;;;18.75;9.75;;;;;;;;;;10492040;28;20102;-78
2023/07/03 05:50:08;;;;;;;21.25;11.68;;;;;;;;;;10490714;28;20116;-75
2023/07/03 05:55:08;;;;;;;20.67;10.60;;;;;;;;;;10510515;28;20028;-73
2023/07/03 06:00:13;;;;;;;16.97;9.60;;;;;;;;;;10513132;28;20035;-74
2023/07/03 06:05:13;;;;;;;18.40;10.32;;;;;;;;;;10510655;28;20310;-74
2023/07/03 06:10:14;;;;;;;16.25;9.48;;;;;;;;;;10497230;28;20047;-77
2023/07/03 06:15:14;;;;;;;18.13;9.30;;;;;;;;;;10508726;28;20051;-80
2023/07/03 06:20:15;;;;;;;18.33;9.53;;;;;;;;;;10506839;28;20322;-78
2023/07/03 06:25:15;;;;;;;19.13;10.18;;;;;;;;;;10508361;28;20083;-78
2023/07/03 06:30:15;;;;;;;17.13;10.20;;;;;;;;;;10509628;28;20032;-77
2023/07/03 06:35:16;;;;;;;18.33;9.50;;;;;;;;;;10500956;28;20289;-80
2023/07/03 06:40:18;;;;;;;18.33;10.20;;;;;;;;;;10505310;28;21087;-79
2023/07/03 06:45:19;;;;;;;16.48;9.32;;;;;;;;;;10495901;28;20515;-77
2023/07/03 06:50:19;;;;;;;19.92;11.90;;;;;;;;;;10505164;28;20034;-78
2023/07/03 06:55:20;;;;;;;16.30;9.32;;;;;;;;;;10508923;28;20028;-79
2023/07/03 07:00:20;;;;;;;16.92;9.18;;;;;;;;;;10511971;28;20036;-77
2023/07/03 07:05:21;;;;;;;16.03;9.43;;;;;;;;;;10499586;28;20163;-78
2023/07/03 07:10:24;;;;;;;16.98;9.98;;;;;;;;;;10507765;28;21444;-77
2023/07/03 07:15:24;;;;;;;17.63;9.40;;;;;;;;;;10507058;28;20032;-75
2023/07/03 07:20:24;;;;;;;15.20;9.23;;;;;;;;;;10503667;28;20051;-76
2023/07/03 07:25:25;;;;;;;20.33;9.83;;;;;;;;;;10501864;28;20048;-76
2023/07/03 07:30:25;;;;;;;17.15;8.98;;;;;;;;;;10499189;28;20032;-76
2023/07/03 07:35:25;;;;;;;16.03;8.63;;;;;;;;;;10507023;28;20032;-75
2023/07/03 07:40:26;;;;;;;16.33;8.70;;;;;;;;;;10491286;28;20044;-77
2023/07/03 07:45:26;;;;;;;19.43;9.33;;;;;;;;;;10502467;28;20047;-82
2023/07/03 07:50:27;;;;;;;18.30;9.10;;;;;;;;;;10516753;28;20282;-83
2023/07/03 07:55:28;;;;;;;14.40;8.02;;;;;;;;;;10492636;28;20110;-81
2023/07/03 08:00:28;;;;;;;16.03;8.80;;;;;;;;;;10511840;28;20032;-82
2023/07/03 08:05:31;;;;;;;17.83;8.63;;;;;;;;;;10518262;28;20309;-81
2023/07/03 08:10:31;;;;;;;16.90;8.32;;;;;;;;;;10523839;28;20290;-79
2023/07/03 08:15:31;;;;;;;14.93;7.95;;;;;;;;;;10520870;28;20067;-79
2023/07/03 08:20:32;;;;;;;15.32;9.20;;;;;;;;;;10514298;28;20032;-81
2023/07/03 08:25:32;;;;;;;15.77;8.30;;;;;;;;;;10507059;28;20048;-79
2023/07/03 08:30:33;;;;;;;14.52;8.30;;;;;;;;;;10501905;28;20031;-79
2023/07/03 08:35:33;;;;;;;15.75;8.18;;;;;;;;;;10516840;28;20039;-81
2023/07/03 08:40:34;;;;;;;15.68;8.15;;;;;;;;;;10518797;28;20164;-78
2023/07/03 08:45:36;;;;;;;15.30;8.23;;;;;;;;;;10516824;28;20043;-77
2023/07/03 08:50:37;;;;;;;15.02;8.80;;;;;;;;;;10517578;28;20282;-79
2023/07/03 08:55:40;;;;;;;16.90;8.10;;;;;;;;;;10512537;28;20551;-79
2023/07/03 09:00:44;;;;;;;16.92;7.57;;;;;;;;;;10525937;28;20032;-75
2023/07/03 09:06:14;;;;;;;13.77;7.20;;;;;;;;;;10525625;28;20043;-81
2023/07/03 09:11:17;;;;;;;15.50;7.65;;;;;;;;;;10505262;28;20063;-75
2023/07/03 09:16:22;;;;;;;14.90;8.35;;;;;;;;;;10519677;28;20452;-78
2023/07/03 09:21:23;;;;;;;12.10;7.85;;;;;;;;;;10508875;28;20040;-77
2023/07/03 09:26:37;;;;;;;17.15;7.88;;;;;;;;;;10506127;28;20276;-77
2023/07/03 09:31:37;;;;;;;12.75;6.82;;;;;;;;;;10491450;28;20089;-75
2023/07/03 09:36:40;;;;;;;14.03;6.77;;;;;;;;;;10507535;28;20031;-79
2023/07/03 09:41:40;;;;;;;14.32;7.38;;;;;;;;;;10508730;28;20035;-78
2023/07/03 09:46:42;;;;;;;15.25;6.82;;;;;;;;;;10508108;28;20476;-76
2023/07/03 09:51:43;;;;;;;13.52;6.18;;;;;;;;;;10497276;28;20036;-79
2023/07/03 09:56:43;;;;;;;12.77;5.90;;;;;;;;;;10501740;28;20468;-77
2023/07/03 10:01:44;;;;;;;13.60;6.33;;;;;;;;;;10505470;28;20024;-75
2023/07/03 10:06:58;;;;;;;12.93;5.60;;;;;;;;;;10505620;28;20051;-77
2023/07/03 10:11:58;;;;;;;12.32;5.30;;;;;;;;;;10505554;28;20321;-75
2023/07/03 10:17:00;;;;;;;12.70;5.60;;;;;;;;;;10505586;28;20643;-74
2023/07/03 10:22:00;;;;;;;13.20;6.03;;;;;;;;;;10506339;28;20082;-76
2023/07/03 10:27:02;;;;;;;10.68;5.38;;;;;;;;;;10504040;28;20370;-74
2023/07/03 10:32:04;;;;;;;12.38;5.65;;;;;;;;;;10507889;28;20074;-76
2023/07/03 10:37:05;;;;;;;;;;;;;;;;;;10502472;28;20044;-76
2023/07/03 10:42:09;;;;;;;13.40;6.07;;;;;;;;;;10509040;28;19942;-76
2023/07/03 10:47:16;;;;;;;13.68;5.35;;;;;;;;;;10513746;28;20306;-79
2023/07/03 10:52:35;;;;;;;10.15;4.57;;;;;;;;;;10508271;28;20146;-79
2023/07/03 10:57:42;;;;;;;10.50;4.65;;;;;;;;;;10509971;28;20082;-78
2023/07/03 11:02:57;;;;;;;9.63;4.55;;;;;;;;;;10501093;28;20139;-82
2023/07/03 11:08:03;;;;;;;10.77;3.80;;;;;;;;;;10507091;28;20068;-77
2023/07/03 11:13:24;;;;;;;8.52;4.57;;;;;;;;;;10504317;28;20055;-80
2023/07/03 11:18:48;;;;;;;6.68;3.53;;;;;;;;;;10498864;28;20476;-79
2023/07/03 11:24:07;;;;;;;7.95;3.85;;;;;;;;;;10505799;28;20400;-76
2023/07/03 11:29:08;;;;;;;6.65;3.33;;;;;;;;;;10504952;28;20550;-76
2023/07/03 11:34:11;;;;;;;6.40;2.78;;;;;;;;;;10505024;28;20032;-76
2023/07/03 11:39:13;;;;;;;4.35;2.58;;;;;;;;;;10511277;28;20124;-77
2023/07/03 11:44:18;;;;;;;4.45;2.67;;;;;;;;;;10509570;28;20132;-75
2023/07/03 11:49:23;;;;;;;4.50;2.70;;;;;;;;;;10515798;28;20039;-77
2023/07/03 11:54:26;;;;;;;6.38;3.03;;;;;;;;;;10515163;28;20032;-73
2023/07/03 11:59:28;;;;;;;4.72;2.88;;;;;;;;;;10513558;28;20036;-76
2023/07/03 12:04:50;;;;;;;5.63;3.33;;;;;;;;;;10509760;28;20051;-77
2023/07/03 12:09:50;;;;;;;8.27;3.15;;;;;;;;;;10506326;28;20040;-79
2023/07/03 12:14:54;;;;;;;8.23;3.45;;;;;;;;;;10514384;28;20059;-78
2023/07/03 12:20:11;;;;;;;5.25;2.40;;;;;;;;;;10512799;28;20059;-76
2023/07/03 12:25:18;;;;;;;4.18;2.30;;;;;;;;;;10506436;28;20044;-79
2023/07/03 12:30:26;;;;;;;4.28;1.92;;;;;;;;;;10511288;28;20028;-76
2023/07/03 12:35:27;;;;;;;3.70;2.13;;;;;;;;;;10507833;28;20042;-76
2023/07/03 12:40:28;;;;;;;5.00;2.30;;;;;;;;;;10510107;28;20036;-79
2023/07/03 12:45:30;;;;;;;3.53;2.43;;;;;;;;;;10501025;28;20045;-75
2023/07/03 12:50:31;;;;;;;5.13;1.90;;;;;;;;;;10502760;28;21117;-76
2023/07/03 12:55:32;;;;;;;;;;;;;;;;;;10511977;28;20040;-76
2023/07/03 13:00:34;;;;;;;5.85;2.42;;;;;;;;;;10508874;28;19950;-75
2023/07/03 13:05:35;;;;;;;4.00;2.25;;;;;;;;;;10494588;28;20138;-77
2023/07/03 13:10:36;;;;;;;6.50;2.40;;;;;;;;;;10512491;28;20836;-77
2023/07/03 13:15:41;;;;;;;2.93;1.70;;;;;;;;;;10505756;28;20040;-78
2023/07/03 13:20:57;;;;;;;3.67;2.20;;;;;;;;;;10507178;28;20381;-79
2023/07/03 13:25:58;;;;;;;5.60;2.20;;;;;;;;;;10502629;28;20047;-77
2023/07/03 13:31:11;;;;;;;3.33;2.00;;;;;;;;;;10506045;28;20475;-78
2023/07/03 13:36:19;;;;;;;4.05;1.90;;;;;;;;;;10503260;28;20118;-79
2023/07/03 13:41:20;;;;;;;5.20;2.15;;;;;;;;;;10504762;28;20063;-78
2023/07/03 13:46:20;;;;;;;3.83;2.10;;;;;;;;;;10492731;28;20040;-78
2023/07/03 13:51:21;;;;;;;4.43;1.87;;;;;;;;;;10505313;28;20292;-79
2023/07/03 13:56:21;;;;;;;4.82;1.90;;;;;;;;;;10510663;28;20297;-79
2023/07/03 14:01:22;;;;;;;2.60;1.77;;;;;;;;;;10502342;28;20040;-79
2023/07/03 14:06:22;;;;;;;3.17;1.80;;;;;;;;;;10504311;28;20075;-77
2023/07/03 14:11:23;;;;;;;3.97;1.98;;;;;;;;;;10489752;28;20112;-76
2023/07/03 14:16:24;;;;;;;2.50;1.60;;;;;;;;;;10505089;28;20040;-82
2023/07/03 14:21:25;;;;;;;3.80;1.93;;;;;;;;;;10506616;28;20109;-79
2023/07/03 14:26:29;;;;;;;3.90;1.60;;;;;;;;;;10504087;28;20321;-77
2023/07/03 14:31:29;;;;;;;3.08;1.48;;;;;;;;;;10491824;28;20039;-77
2023/07/03 14:36:29;;;;;;;2.53;1.70;;;;;;;;;;10504602;28;20522;-78
2023/07/03 14:41:30;;;;;;;3.70;2.03;;;;;;;;;;10491799;28;20044;-74
2023/07/03 14:46:30;;;;;;;4.70;2.00;;;;;;;;;;10508601;28;20908;-78
2023/07/03 14:51:30;;;;;;;3.90;1.93;;;;;;;;;;10498094;28;20463;-80
2023/07/03 14:56:32;;;;;;;6.07;1.93;;;;;;;;;;10503581;28;20110;-80
2023/07/03 15:01:34;;;;;;;4.20;1.80;;;;;;;;;;10503396;28;20048;-80
2023/07/03 15:06:34;;;;;;;5.78;2.00;;;;;;;;;;10502652;28;20060;-80
2023/07/03 15:11:35;;;;;;;2.03;1.70;;;;;;;;;;10507688;28;20066;-75
2023/07/03 15:16:37;;;;;;;4.47;2.05;;;;;;;;;;10520567;28;20032;-81
2023/07/03 15:21:38;;;;;;;3.25;2.10;;;;;;;;;;10519848;28;20678;-77
2023/07/03 15:26:38;;;;;;;3.40;2.03;;;;;;;;;;10534481;28;20051;-78
2023/07/03 15:31:39;;;;;;;3.65;1.90;;;;;;;;;;10534626;28;20020;-77
2023/07/03 15:36:39;;;;;;;3.00;1.90;;;;;;;;;;10510518;28;20442;-78
2023/07/03 15:41:39;;;;;;;2.83;1.80;;;;;;;;;;10516098;28;20028;-79
2023/07/03 15:46:40;;;;;;;5.47;1.87;;;;;;;;;;10513550;28;20317;-77
2023/07/03 15:51:40;;;;;;;3.47;1.53;;;;;;;;;;10542081;28;20044;-83
2023/07/03 15:56:41;;;;;;;4.07;2.17;;;;;;;;;;10640445;22;20335;-85
2023/07/03 16:01:41;;;;;;;3.97;1.70;;;;;;;;;;10542771;28;20024;-82
2023/07/03 16:06:41;;;;;;;2.53;1.70;;;;;;;;;;10530292;28;20355;-86
2023/07/03 16:11:42;;;;;;;2.93;1.70;;;;;;;;;;10565799;28;20300;-84
2023/07/03 16:16:42;;;;;;;3.67;1.50;;;;;;;;;;10524615;28;20294;-87
2023/07/03 16:21:44;;;;;;;4.18;1.83;;;;;;;;;;10551425;28;20029;-86
2023/07/03 16:26:45;;;;;;;2.00;1.50;;;;;;;;;;10569719;28;20077;-87
2023/07/03 16:31:46;;;;;;;3.63;2.08;;;;;;;;;;10526693;28;20065;-79
2023/07/03 16:36:46;;;;;;;4.07;2.30;;;;;;;;;;10516614;28;20046;-78
2023/07/03 16:41:46;;;;;;;4.53;1.60;;;;;;;;;;10525039;28;21170;-76
2023/07/03 16:46:47;;;;;;;3.65;1.60;;;;;;;;;;10515141;28;20051;-79
2023/07/03 16:51:48;;;;;;;2.17;1.60;;;;;;;;;;10524973;28;20494;-78
2023/07/03 16:56:52;;;;;;;2.35;1.30;;;;;;;;;;10516691;28;21252;-78
2023/07/03 17:01:53;;;;;;;2.40;1.50;;;;;;;;;;10523674;28;20046;-83
2023/07/03 17:06:54;;;;;;;2.90;1.67;;;;;;;;;;10527396;28;20059;-77
2023/07/03 17:11:54;;;;;;;1.93;1.40;;;;;;;;;;10525143;28;20302;-77
2023/07/03 17:16:54;;;;;;;2.60;1.20;;;;;;;;;;10510699;28;20278;-80
2023/07/03 17:21:55;;;;;;;2.50;1.33;;;;;;;;;;10521525;28;20290;-76
2023/07/03 17:26:55;;;;;;;3.13;1.40;;;;;;;;;;10524116;28;20047;-76
2023/07/03 17:31:56;;;;;;;2.53;1.27;;;;;;;;;;10514826;28;20036;-80
2023/07/03 17:36:56;;;;;;;1.75;1.42;;;;;;;;;;10514866;28;20314;-76
2023/07/03 17:41:57;;;;;;;2.10;1.40;;;;;;;;;;10514890;28;20058;-76
2023/07/03 17:46:57;;;;;;;3.90;1.23;;;;;;;;;;10514959;28;20047;-79
2023/07/03 17:51:57;;;;;;;1.83;1.37;;;;;;;;;;10517344;28;20299;-76
2023/07/03 17:56:58;;;;;;;2.07;1.40;;;;;;;;;;10521963;28;20491;-77
2023/07/03 18:01:58;;;;;;;2.13;1.20;;;;;;;;;;10517831;28;20611;-78
2023/07/03 18:06:59;;;;;;;5.07;2.80;;;;;;;;;;10514860;28;20039;-76
2023/07/03 18:12:00;;;;;;;3.05;1.40;;;;;;;;;;10514778;28;20068;-76
2023/07/03 18:17:00;;;;;;;1.45;1.15;;;;;;;;;;10517957;28;20211;-80
2023/07/03 18:22:00;;;;;;;3.00;1.27;;;;;;;;;;10520548;28;20039;-79
2023/07/03 18:27:01;;;;;;;2.57;1.67;;;;;;;;;;10526571;28;20797;-78
2023/07/03 18:32:02;;;;;;;3.85;2.03;;;;;;;;;;10516574;28;20278;-77
2023/07/03 18:37:02;;;;;;;3.03;1.40;;;;;;;;;;10509695;28;20075;-76
2023/07/03 18:42:03;;;;;;;3.10;1.80;;;;;;;;;;10513105;28;20036;-79
2023/07/03 18:47:04;;;;;;;3.75;2.50;;;;;;;;;;10513383;28;20040;-76
2023/07/03 18:52:06;;;;;;;2.75;2.10;;;;;;;;;;10512094;28;20068;-80
2023/07/03 18:57:06;;;;;;;1.67;1.48;;;;;;;;;;10511297;28;20499;-80
2023/07/03 19:02:07;;;;;;;2.50;1.60;;;;;;;;;;10510510;28;20036;-81
2023/07/03 19:07:07;;;;;;;2.95;1.60;;;;;;;;;;10514477;28;20814;-78
2023/07/03 19:12:08;;;;;;;2.65;1.45;;;;;;;;;;10515660;28;20040;-76
2023/07/03 19:17:09;;;;;;;1.73;1.48;;;;;;;;;;10510232;28;20488;-78
2023/07/03 19:22:09;;;;;;;3.33;2.35;;;;;;;;;;10518267;28;20032;-79
2023/07/03 19:27:10;;;;;;;3.27;2.00;;;;;;;;;;10514179;28;20116;-76
2023/07/03 19:32:12;;;;;;;3.03;1.85;;;;;;;;;;10509189;28;20290;-76
2023/07/03 19:37:12;;;;;;;2.70;1.73;;;;;;;;;;10510030;28;20047;-76
2023/07/03 19:42:13;;;;;;;2.23;1.43;;;;;;;;;;10513475;28;20037;-76
2023/07/03 19:47:13;;;;;;;2.20;1.33;;;;;;;;;;10505968;28;20318;-77
2023/07/03 19:52:13;;;;;;;1.77;1.30;;;;;;;;;;10513675;28;20142;-76
2023/07/03 19:57:15;;;;;;;2.97;1.80;;;;;;;;;;10509835;28;20543;-77
2023/07/03 20:02:15;;;;;;;2.17;1.40;;;;;;;;;;10516638;28;20286;-76
2023/07/03 20:07:15;;;;;;;3.87;2.10;;;;;;;;;;10516042;28;20044;-77
2023/07/03 20:12:16;;;;;;;6.93;3.13;;;;;;;;;;10538126;28;20039;-82
2023/07/03 20:17:16;;;;;;;3.65;2.65;;;;;;;;;;10534416;28;20313;-84
2023/07/03 20:22:18;;;;;;;2.35;2.13;;;;;;;;;;10525564;28;20036;-77
2023/07/03 20:27:18;;;;;;;3.67;1.95;;;;;;;;;;10521576;28;20044;-77
2023/07/03 20:32:23;;;;;;;2.47;1.75;;;;;;;;;;10527039;28;20064;-81
2023/07/03 20:37:24;;;;;;;2.15;1.58;;;;;;;;;;10517402;28;20040;-82
2023/07/03 20:42:27;;;;;;;3.65;1.70;;;;;;;;;;10521041;28;20570;-81
2023/07/03 20:47:31;;;;;;;2.03;1.80;;;;;;;;;;10543352;28;20031;-83
2023/07/03 20:52:39;;;;;;;2.42;1.50;;;;;;;;;;10573831;28;20036;-83
2023/07/03 20:57:40;;;;;;;3.35;1.85;;;;;;;;;;10543880;28;20040;-83
2023/07/03 21:02:45;;;;;;;3.47;1.90;;;;;;;;;;10537378;28;20115;-83
2023/07/03 21:07:49;;;;;;;3.40;1.80;;;;;;;;;;10563237;28;20036;-82
2023/07/03 21:12:54;;;;;;;1.70;1.45;;;;;;;;;;10568207;28;20095;-84
2023/07/03 21:17:58;;;;;;;2.33;1.80;;;;;;;;;;10584864;28;20028;-84
2023/07/03 21:22:59;;;;;;;2.85;1.58;;;;;;;;;;10546822;28;20118;-82
2023/07/03 21:28:00;;;;;;;7.38;3.92;;;;;;;;;;10535307;28;20143;-83
2023/07/03 21:33:02;;;;;;;2.60;1.70;;;;;;;;;;10563731;28;20023;-82
2023/07/03 21:38:04;;;;;;;3.90;1.67;;;;;;;;;;10558688;28;20573;-82
2023/07/03 21:43:05;;;;;;;2.83;1.60;;;;;;;;;;10527959;28;20032;-81
2023/07/03 21:48:07;;;;;;;3.25;1.85;;;;;;;;;;10519697;28;20062;-84
2023/07/03 21:53:07;;;;;;;2.13;1.57;;;;;;;;;;10510228;28;20132;-81
2023/07/03 21:58:09;;;;;;;4.30;1.80;;;;;;;;;;10516182;28;20150;-81
2023/07/03 22:03:10;;;;;;;2.53;1.40;;;;;;;;;;10509243;28;20039;-83
2023/07/03 22:08:10;;;;;;;1.75;1.50;;;;;;;;;;10510937;28;20370;-80
2023/07/03 22:13:11;;;;;;;2.67;1.70;;;;;;;;;;10515164;28;20074;-81
2023/07/03 22:18:12;;;;;;;3.07;1.70;;;;;;;;;;10514741;28;20032;-81
2023/07/03 22:23:13;;;;;;;1.92;1.60;;;;;;;;;;10518389;28;20282;-81
2023/07/03 22:28:16;;;;;;;;;;;;;;;;;;10519467;28;20032;-83
2023/07/03 22:33:16;;;;;;;3.03;1.83;;;;;;;;;;10515165;28;20465;-83
2023/07/03 22:38:18;;;;;;;2.00;1.60;;;;;;;;;;10517378;28;20044;-82
2023/07/03 22:43:20;;;;;;;3.72;1.90;;;;;;;;;;10511372;28;20118;-82
2023/07/03 22:48:22;;;;;;;2.63;1.67;;;;;;;;;;10515010;28;20097;-82
2023/07/03 22:53:22;;;;;;;3.57;2.00;;;;;;;;;;10521555;28;20036;-82
2023/07/03 22:58:23;;;;;;;1.92;1.60;;;;;;;;;;10519466;28;20032;-79
2023/07/03 23:03:23;;;;;;;4.17;2.00;;;;;;;;;;10515965;28;20035;-80
2023/07/03 23:08:24;;;;;;;3.80;1.87;;;;;;;;;;10508170;28;20033;-80
2023/07/03 23:13:24;;;;;;;4.25;2.00;;;;;;;;;;10507026;28;20035;-79
2023/07/03 23:18:27;;;;;;;2.40;1.60;;;;;;;;;;10511464;28;20039;-81
2023/07/03 23:23:32;;;;;;;2.65;2.00;;;;;;;;;;10515199;28;20081;-81
2023/07/03 23:28:34;;;;;;;4.10;1.73;;;;;;;;;;10523823;28;20024;-81
2023/07/03 23:33:35;;;;;;;2.72;2.00;;;;;;;;;;10527556;28;20473;-81
2023/07/03 23:38:36;;;;;;;4.22;1.80;;;;;;;;;;10523630;28;20164;-80
2023/07/03 23:43:37;;;;;;;2.88;1.77;;;;;;;;;;10522536;28;20147;-79
2023/07/03 23:48:39;;;;;;;2.30;1.85;;;;;;;;;;10525089;28;20042;-83
2023/07/03 23:53:42;;;;;;;2.20;1.70;;;;;;;;;;10523568;28;20136;-80
2023/07/03 23:58:44;;;;;;;3.55;2.03;;;;;;;;;;10517924;28;20115;-80
